Wetterdaten für den Flughafen Lübeck Blankensee


ADDS - METARS form results Aviation Digital Data Service (ADDS) Output produced by METARs form (0317 UTC 24 September 2017)
found at http://www.aviationweather.gov/adds/metars/
 
EDDH 240250Z 29002KT 8000 BKN025 12/11 Q1023 TEMPO 4000 -DZ
TAF EDDH 232300Z 2400/2506 33005KT 9999 BKN040 BECMG 2400/2403 BKN012 TEMPO 2400/2411 3000 DZRA BKN007 PROB40 TEMPO 2403/2409 BKN003 BECMG 2411/2413 04005KT SCT015 BKN020 BECMG 2422/2501 4000 BR TEMPO 2501/2506 2000 BKN007

 

Copyright © 2016 Flugschule Hohensee